DAL399 KBOS-KATL
Flight info
| Callsign | DAL399 |
|---|---|
| Flight time | 2h 3m |
| Altitude | 38000 |
| Route | BLZZR6 BLZZR BAF Q448 PTW J48 MOL FLASK OZZZI2 |
| Aircraft | B772/H-L/C |
Departure
| Time | 2026-05-05 23:23 |
|---|---|
| Airport | Boston Logan International Airport (KBOS) |
Arrival
| Time | 2026-05-06 01:26 |
|---|---|
| Airport | Hartsfield Jackson Atlanta International Airport (KATL) |
| Time | Latitude | Longitude | Altitude | Speed | Heading |
|---|---|---|---|---|---|
| 2026-05-05 23:10 | 42.36179 | -71.02349 | 28 ft | 0 kts | 186° |
| 2026-05-05 23:12 | 42.36177 | -71.02349 | 28 ft | 4 kts | 186° |
| 2026-05-05 23:13 | 42.36115 | -71.02342 | 28 ft | 10 kts | 161° |
| 2026-05-05 23:13 | 42.36043 | -71.02280 | 28 ft | 14 kts | 129° |
| 2026-05-05 23:13 | 42.35988 | -71.02167 | 27 ft | 14 kts | 121° |
| 2026-05-05 23:13 | 42.35931 | -71.02031 | 28 ft | 18 kts | 120° |
| 2026-05-05 23:14 | 42.35869 | -71.01889 | 28 ft | 18 kts | 118° |
| 2026-05-05 23:14 | 42.35833 | -71.01733 | 28 ft | 17 kts | 103° |
| 2026-05-05 23:14 | 42.35843 | -71.01584 | 28 ft | 17 kts | 50° |
| 2026-05-05 23:14 | 42.35946 | -71.01518 | 28 ft | 17 kts | 19° |
| 2026-05-05 23:15 | 42.36055 | -71.01466 | 28 ft | 17 kts | 19° |
| 2026-05-05 23:15 | 42.36164 | -71.01412 | 28 ft | 17 kts | 20° |
| 2026-05-05 23:15 | 42.36273 | -71.01359 | 28 ft | 17 kts | 19° |
| 2026-05-05 23:15 | 42.36382 | -71.01308 | 28 ft | 17 kts | 19° |
| 2026-05-05 23:16 | 42.36492 | -71.01256 | 28 ft | 17 kts | 20° |
| 2026-05-05 23:16 | 42.36600 | -71.01202 | 28 ft | 17 kts | 20° |
| 2026-05-05 23:16 | 42.36709 | -71.01149 | 28 ft | 17 kts | 19° |
| 2026-05-05 23:16 | 42.36816 | -71.01178 | 28 ft | 17 kts | 323° |
| 2026-05-05 23:17 | 42.36919 | -71.01181 | 27 ft | 17 kts | 34° |
| 2026-05-05 23:17 | 42.37013 | -71.01090 | 27 ft | 17 kts | 30° |
| 2026-05-05 23:17 | 42.37117 | -71.01022 | 27 ft | 17 kts | 25° |
| 2026-05-05 23:17 | 42.37221 | -71.00955 | 28 ft | 17 kts | 25° |
| 2026-05-05 23:18 | 42.37327 | -71.00891 | 26 ft | 17 kts | 22° |
| 2026-05-05 23:18 | 42.37435 | -71.00837 | 28 ft | 17 kts | 19° |
| 2026-05-05 23:18 | 42.37544 | -71.00785 | 27 ft | 17 kts | 19° |
| 2026-05-05 23:18 | 42.37653 | -71.00733 | 28 ft | 17 kts | 19° |
| 2026-05-05 23:19 | 42.37756 | -71.00684 | 28 ft | 13 kts | 19° |
| 2026-05-05 23:19 | 42.37781 | -71.00672 | 28 ft | 0 kts | 20° |
| 2026-05-05 23:20 | 42.37809 | -71.00657 | 28 ft | 8 kts | 25° |
| 2026-05-05 23:20 | 42.37837 | -71.00599 | 28 ft | 8 kts | 88° |
| 2026-05-05 23:20 | 42.37835 | -71.00582 | 28 ft | 0 kts | 101° |
| 2026-05-05 23:21 | 42.37820 | -71.00510 | 28 ft | 7 kts | 116° |
| 2026-05-05 23:21 | 42.37778 | -71.00485 | 28 ft | 6 kts | 190° |
| 2026-05-05 23:21 | 42.37777 | -71.00485 | 28 ft | 0 kts | 191° |
| 2026-05-05 23:22 | 42.37776 | -71.00485 | 28 ft | 2 kts | 191° |
| 2026-05-05 23:22 | 42.37612 | -71.00558 | 29 ft | 48 kts | 200° |
| 2026-05-05 23:22 | 42.37078 | -71.00818 | 29 ft | 121 kts | 199° |
| 2026-05-05 23:23 | 42.36061 | -71.01288 | 404 ft | 178 kts | 198° |
| 2026-05-05 23:23 | 42.34699 | -71.01799 | 903 ft | 216 kts | 188° |
| 2026-05-05 23:23 | 42.33255 | -71.01408 | 2605 ft | 215 kts | 160° |
| 2026-05-05 23:23 | 42.32207 | -71.00016 | 3616 ft | 223 kts | 127° |
| 2026-05-05 23:24 | 42.31766 | -70.98001 | 4272 ft | 224 kts | 109° |
| 2026-05-05 23:24 | 42.31417 | -70.95939 | 4691 ft | 226 kts | 117° |
| 2026-05-05 23:24 | 42.31039 | -70.93801 | 4800 ft | 250 kts | 95° |
| 2026-05-05 23:24 | 42.31440 | -70.91406 | 4645 ft | 267 kts | 72° |
| 2026-05-05 23:25 | 42.31999 | -70.88998 | 4235 ft | 273 kts | 78° |
| 2026-05-05 23:25 | 42.32436 | -70.86475 | 3751 ft | 279 kts | 83° |
| 2026-05-05 23:25 | 42.32828 | -70.83854 | 3239 ft | 289 kts | 83° |
| 2026-05-05 23:25 | 42.33160 | -70.81227 | 3020 ft | 274 kts | 95° |
| 2026-05-05 23:26 | 42.32806 | -70.78896 | 3029 ft | 244 kts | 126° |
| 2026-05-05 23:26 | 42.32034 | -70.76894 | 2995 ft | 238 kts | 130° |
| 2026-05-05 23:26 | 42.31253 | -70.74932 | 3015 ft | 236 kts | 130° |
| 2026-05-05 23:27 | 42.29640 | -70.71935 | 3023 ft | 207 kts | 165° |
| 2026-05-05 23:27 | 42.28331 | -70.71464 | 3033 ft | 194 kts | 187° |
| 2026-05-05 23:27 | 42.27017 | -70.71558 | 3021 ft | 189 kts | 198° |
| 2026-05-05 23:27 | 42.25729 | -70.71854 | 3041 ft | 190 kts | 199° |
| 2026-05-05 23:28 | 42.24360 | -70.72191 | 3270 ft | 213 kts | 198° |
| 2026-05-05 23:28 | 42.22841 | -70.72558 | 3850 ft | 228 kts | 197° |
| 2026-05-05 23:28 | 42.21245 | -70.72940 | 4605 ft | 235 kts | 199° |
| 2026-05-05 23:28 | 42.19787 | -70.73834 | 5262 ft | 232 kts | 225° |
| 2026-05-05 23:29 | 42.18765 | -70.75502 | 6087 ft | 232 kts | 239° |
| 2026-05-05 23:29 | 42.18146 | -70.77513 | 6907 ft | 237 kts | 255° |
| 2026-05-05 23:29 | 42.17829 | -70.79742 | 7622 ft | 245 kts | 258° |
| 2026-05-05 23:29 | 42.17556 | -70.82025 | 8504 ft | 248 kts | 259° |
| 2026-05-05 23:30 | 42.17270 | -70.84343 | 9335 ft | 253 kts | 259° |
| 2026-05-05 23:30 | 42.16974 | -70.86635 | 10087 ft | 259 kts | 258° |
| 2026-05-05 23:30 | 42.16646 | -70.89090 | 10547 ft | 278 kts | 258° |
| 2026-05-05 23:30 | 42.16286 | -70.91748 | 10748 ft | 306 kts | 258° |
| 2026-05-05 23:31 | 42.15964 | -70.94700 | 10988 ft | 329 kts | 266° |
| 2026-05-05 23:31 | 42.16120 | -70.97837 | 11678 ft | 341 kts | 274° |
| 2026-05-05 23:31 | 42.16399 | -71.01040 | 12582 ft | 347 kts | 274° |
| 2026-05-05 23:31 | 42.16668 | -71.04294 | 13636 ft | 351 kts | 274° |
| 2026-05-05 23:32 | 42.16928 | -71.07577 | 14590 ft | 355 kts | 274° |
| 2026-05-05 23:32 | 42.17182 | -71.10915 | 15482 ft | 360 kts | 274° |
| 2026-05-05 23:32 | 42.17432 | -71.14300 | 16374 ft | 367 kts | 273° |
| 2026-05-05 23:32 | 42.17683 | -71.17752 | 17284 ft | 372 kts | 273° |
| 2026-05-05 23:33 | 42.17934 | -71.21251 | 18177 ft | 378 kts | 273° |
| 2026-05-05 23:33 | 42.18186 | -71.24800 | 19008 ft | 382 kts | 274° |
| 2026-05-05 23:33 | 42.18440 | -71.28384 | 19870 ft | 386 kts | 274° |
| 2026-05-05 23:33 | 42.18695 | -71.32015 | 20709 ft | 391 kts | 274° |
| 2026-05-05 23:34 | 42.18952 | -71.35691 | 21517 ft | 396 kts | 274° |
| 2026-05-05 23:34 | 42.19211 | -71.39401 | 22337 ft | 400 kts | 274° |
| 2026-05-05 23:34 | 42.19468 | -71.43103 | 23135 ft | 404 kts | 274° |
| 2026-05-05 23:34 | 42.19730 | -71.46895 | 23811 ft | 408 kts | 274° |
| 2026-05-05 23:35 | 42.19994 | -71.50726 | 24422 ft | 413 kts | 274° |
| 2026-05-05 23:35 | 42.20259 | -71.54600 | 25017 ft | 417 kts | 274° |
| 2026-05-05 23:35 | 42.20525 | -71.58508 | 25650 ft | 419 kts | 274° |
| 2026-05-05 23:35 | 42.20791 | -71.62432 | 26282 ft | 421 kts | 274° |
| 2026-05-05 23:36 | 42.21058 | -71.66387 | 26800 ft | 426 kts | 274° |
| 2026-05-05 23:36 | 42.21327 | -71.70387 | 27265 ft | 431 kts | 275° |
| 2026-05-05 23:36 | 42.21597 | -71.74436 | 27760 ft | 435 kts | 275° |
| 2026-05-05 23:36 | 42.21748 | -71.78521 | 28206 ft | 438 kts | 269° |
| 2026-05-05 23:37 | 42.21607 | -71.82642 | 28637 ft | 442 kts | 266° |
| 2026-05-05 23:37 | 42.21332 | -71.86784 | 29045 ft | 445 kts | 265° |
| 2026-05-05 23:37 | 42.21023 | -71.90961 | 29408 ft | 450 kts | 265° |
| 2026-05-05 23:37 | 42.20704 | -71.95175 | 29763 ft | 453 kts | 263° |
| 2026-05-05 23:38 | 42.20032 | -71.99340 | 30050 ft | 459 kts | 254° |
| 2026-05-05 23:38 | 42.18877 | -72.03368 | 30370 ft | 462 kts | 248° |
| 2026-05-05 23:38 | 42.17387 | -72.07206 | 30794 ft | 463 kts | 241° |
| 2026-05-05 23:38 | 42.15618 | -72.10824 | 31255 ft | 461 kts | 239° |
| 2026-05-05 23:39 | 42.13820 | -72.14400 | 31699 ft | 460 kts | 239° |
| 2026-05-05 23:39 | 42.12022 | -72.17964 | 32129 ft | 459 kts | 239° |
| 2026-05-05 23:39 | 42.10235 | -72.21516 | 32546 ft | 458 kts | 240° |
| 2026-05-05 23:39 | 42.08458 | -72.25067 | 32968 ft | 457 kts | 240° |
| 2026-05-05 23:40 | 42.06699 | -72.28588 | 33614 ft | 450 kts | 241° |
| 2026-05-05 23:40 | 42.04961 | -72.32078 | 34131 ft | 447 kts | 241° |
| 2026-05-05 23:40 | 42.03230 | -72.35562 | 34451 ft | 447 kts | 241° |
| 2026-05-05 23:40 | 42.01505 | -72.39036 | 34801 ft | 447 kts | 241° |
| 2026-05-05 23:41 | 41.99776 | -72.42513 | 35152 ft | 446 kts | 240° |
| 2026-05-05 23:41 | 41.98053 | -72.45972 | 35554 ft | 445 kts | 240° |
| 2026-05-05 23:41 | 41.96330 | -72.49425 | 35933 ft | 443 kts | 240° |
| 2026-05-05 23:41 | 41.94638 | -72.52813 | 36323 ft | 442 kts | 239° |
| 2026-05-05 23:42 | 41.92925 | -72.56236 | 36715 ft | 440 kts | 239° |
| 2026-05-05 23:42 | 41.91221 | -72.59638 | 37103 ft | 438 kts | 239° |
| 2026-05-05 23:42 | 41.89523 | -72.63026 | 37545 ft | 435 kts | 239° |
| 2026-05-05 23:42 | 41.87830 | -72.66398 | 37751 ft | 438 kts | 239° |
| 2026-05-05 23:43 | 41.84410 | -72.73204 | 37821 ft | 440 kts | 239° |
| 2026-05-05 23:43 | 41.81000 | -72.79968 | 37834 ft | 435 kts | 238° |
| 2026-05-05 23:44 | 41.77581 | -72.86743 | 37854 ft | 443 kts | 238° |
| 2026-05-05 23:44 | 41.74095 | -72.93633 | 37854 ft | 450 kts | 238° |
| 2026-05-05 23:45 | 41.70549 | -73.00622 | 37863 ft | 456 kts | 238° |
| 2026-05-05 23:45 | 41.66946 | -73.07657 | 37866 ft | 461 kts | 238° |
| 2026-05-05 23:46 | 41.63244 | -73.14710 | 37835 ft | 464 kts | 237° |
| 2026-05-05 23:46 | 41.59517 | -73.21776 | 37847 ft | 466 kts | 237° |
| 2026-05-05 23:47 | 41.55786 | -73.28857 | 37838 ft | 466 kts | 238° |
| 2026-05-05 23:47 | 41.52053 | -73.35941 | 37844 ft | 466 kts | 237° |
| 2026-05-05 23:48 | 41.48315 | -73.43019 | 37855 ft | 467 kts | 237° |
| 2026-05-05 23:48 | 41.44571 | -73.50092 | 37860 ft | 467 kts | 237° |
| 2026-05-05 23:49 | 41.40824 | -73.57154 | 37851 ft | 467 kts | 237° |
| 2026-05-05 23:49 | 41.37099 | -73.64157 | 37857 ft | 466 kts | 237° |
| 2026-05-05 23:50 | 41.33345 | -73.71201 | 37843 ft | 467 kts | 237° |
| 2026-05-05 23:50 | 41.29582 | -73.78245 | 37837 ft | 467 kts | 237° |
| 2026-05-05 23:51 | 41.25811 | -73.85287 | 37796 ft | 467 kts | 237° |
| 2026-05-05 23:51 | 41.22040 | -73.92312 | 37826 ft | 467 kts | 237° |
| 2026-05-05 23:52 | 41.18258 | -73.99341 | 37827 ft | 467 kts | 237° |
| 2026-05-05 23:52 | 41.14475 | -74.06360 | 37813 ft | 468 kts | 238° |
| 2026-05-05 23:53 | 41.10681 | -74.13381 | 37828 ft | 469 kts | 238° |
| 2026-05-05 23:53 | 41.06875 | -74.20407 | 37839 ft | 469 kts | 238° |
| 2026-05-05 23:54 | 41.03067 | -74.27420 | 37847 ft | 469 kts | 238° |
| 2026-05-05 23:54 | 40.99252 | -74.34431 | 37846 ft | 469 kts | 238° |
| 2026-05-05 23:55 | 40.95433 | -74.41435 | 37855 ft | 469 kts | 239° |
| 2026-05-05 23:55 | 40.91605 | -74.48440 | 37850 ft | 469 kts | 239° |
| 2026-05-05 23:56 | 40.87771 | -74.55440 | 37864 ft | 470 kts | 239° |
| 2026-05-05 23:56 | 40.83962 | -74.62376 | 37865 ft | 470 kts | 239° |
| 2026-05-05 23:57 | 40.80113 | -74.69370 | 37851 ft | 471 kts | 239° |
| 2026-05-05 23:57 | 40.76232 | -74.76407 | 37839 ft | 471 kts | 238° |
| 2026-05-05 23:58 | 40.72393 | -74.83351 | 37825 ft | 472 kts | 238° |
| 2026-05-05 23:58 | 40.68542 | -74.90301 | 37844 ft | 472 kts | 238° |
| 2026-05-05 23:59 | 40.64686 | -74.97246 | 37840 ft | 472 kts | 238° |
| 2026-05-05 23:59 | 40.60802 | -75.04225 | 37834 ft | 473 kts | 238° |
| 2026-05-06 00:00 | 40.56912 | -75.11202 | 37846 ft | 473 kts | 239° |
| 2026-05-06 00:00 | 40.53012 | -75.18177 | 37870 ft | 473 kts | 239° |
| 2026-05-06 00:01 | 40.49113 | -75.25135 | 37883 ft | 473 kts | 239° |
| 2026-05-06 00:01 | 40.45210 | -75.32086 | 37889 ft | 473 kts | 239° |
| 2026-05-06 00:02 | 40.41303 | -75.39028 | 37847 ft | 472 kts | 238° |
| 2026-05-06 00:02 | 40.37413 | -75.45920 | 37900 ft | 471 kts | 239° |
| 2026-05-06 00:03 | 40.34170 | -75.51660 | 37889 ft | 470 kts | 239° |
| 2026-05-06 00:03 | 40.30283 | -75.58527 | 37893 ft | 469 kts | 239° |
| 2026-05-06 00:04 | 40.26401 | -75.65366 | 37895 ft | 467 kts | 239° |
| 2026-05-06 00:04 | 40.22518 | -75.72194 | 37883 ft | 467 kts | 239° |
| 2026-05-06 00:05 | 40.16701 | -75.82393 | 37888 ft | 466 kts | 239° |
| 2026-05-06 00:06 | 40.12821 | -75.89180 | 37869 ft | 466 kts | 239° |
| 2026-05-06 00:06 | 40.08936 | -75.95958 | 37848 ft | 466 kts | 239° |
| 2026-05-06 00:07 | 40.05049 | -76.02726 | 37820 ft | 466 kts | 239° |
| 2026-05-06 00:07 | 40.01158 | -76.09485 | 37839 ft | 466 kts | 239° |
| 2026-05-06 00:08 | 39.97258 | -76.16248 | 37847 ft | 467 kts | 239° |
| 2026-05-06 00:08 | 39.93351 | -76.23007 | 37843 ft | 467 kts | 240° |
| 2026-05-06 00:09 | 39.89470 | -76.29706 | 37844 ft | 467 kts | 239° |
| 2026-05-06 00:09 | 39.85549 | -76.36461 | 37843 ft | 468 kts | 239° |
| 2026-05-06 00:10 | 39.81623 | -76.43209 | 37846 ft | 467 kts | 239° |
| 2026-05-06 00:10 | 39.77695 | -76.49945 | 37851 ft | 467 kts | 239° |
| 2026-05-06 00:11 | 39.73773 | -76.56657 | 37863 ft | 465 kts | 240° |
| 2026-05-06 00:11 | 39.69862 | -76.63336 | 37821 ft | 464 kts | 240° |
| 2026-05-06 00:12 | 39.65880 | -76.69885 | 37855 ft | 466 kts | 236° |
| 2026-05-06 00:12 | 39.61518 | -76.76203 | 37866 ft | 468 kts | 235° |
| 2026-05-06 00:13 | 39.57156 | -76.82403 | 37870 ft | 468 kts | 235° |
| 2026-05-06 00:13 | 39.52789 | -76.88659 | 37893 ft | 468 kts | 236° |
| 2026-05-06 00:14 | 39.48439 | -76.94922 | 37880 ft | 467 kts | 236° |
| 2026-05-06 00:14 | 39.44096 | -77.01179 | 37897 ft | 468 kts | 236° |
| 2026-05-06 00:15 | 39.39739 | -77.07444 | 37890 ft | 469 kts | 236° |
| 2026-05-06 00:15 | 39.35373 | -77.13704 | 37912 ft | 469 kts | 236° |
| 2026-05-06 00:16 | 39.30994 | -77.19971 | 37882 ft | 470 kts | 236° |
| 2026-05-06 00:16 | 39.26608 | -77.26235 | 37904 ft | 471 kts | 236° |
| 2026-05-06 00:17 | 39.22211 | -77.32501 | 37908 ft | 471 kts | 236° |
| 2026-05-06 00:17 | 39.17808 | -77.38762 | 37888 ft | 471 kts | 236° |
| 2026-05-06 00:18 | 39.13402 | -77.45016 | 37901 ft | 471 kts | 236° |
| 2026-05-06 00:18 | 39.08991 | -77.51263 | 37902 ft | 471 kts | 236° |
| 2026-05-06 00:19 | 39.04579 | -77.57499 | 37904 ft | 471 kts | 236° |
| 2026-05-06 00:19 | 39.00155 | -77.63745 | 37897 ft | 472 kts | 236° |
| 2026-05-06 00:20 | 38.95733 | -77.69972 | 37894 ft | 472 kts | 236° |
| 2026-05-06 00:20 | 38.91303 | -77.76195 | 37874 ft | 472 kts | 236° |
| 2026-05-06 00:21 | 38.86904 | -77.82363 | 37876 ft | 471 kts | 236° |
| 2026-05-06 00:21 | 38.82447 | -77.88604 | 37880 ft | 471 kts | 236° |
| 2026-05-06 00:22 | 38.78037 | -77.94764 | 37877 ft | 472 kts | 236° |
| 2026-05-06 00:22 | 38.73602 | -78.00947 | 37874 ft | 471 kts | 236° |
| 2026-05-06 00:23 | 38.69171 | -78.07110 | 37881 ft | 470 kts | 236° |
| 2026-05-06 00:23 | 38.64751 | -78.13248 | 37903 ft | 469 kts | 236° |
| 2026-05-06 00:24 | 38.60324 | -78.19384 | 37892 ft | 469 kts | 236° |
| 2026-05-06 00:24 | 38.55900 | -78.25505 | 37888 ft | 469 kts | 236° |
| 2026-05-06 00:25 | 38.51474 | -78.31616 | 37900 ft | 468 kts | 236° |
| 2026-05-06 00:25 | 38.47045 | -78.37719 | 37904 ft | 468 kts | 236° |
| 2026-05-06 00:26 | 38.42613 | -78.43807 | 37926 ft | 468 kts | 236° |
| 2026-05-06 00:26 | 38.38181 | -78.49885 | 37905 ft | 467 kts | 236° |
| 2026-05-06 00:27 | 38.33757 | -78.55954 | 37935 ft | 468 kts | 236° |
| 2026-05-06 00:27 | 38.29309 | -78.62043 | 37923 ft | 469 kts | 236° |
| 2026-05-06 00:28 | 38.24883 | -78.68095 | 37913 ft | 473 kts | 236° |
| 2026-05-06 00:28 | 38.20381 | -78.74217 | 37913 ft | 475 kts | 236° |
| 2026-05-06 00:29 | 38.15864 | -78.80352 | 37951 ft | 474 kts | 236° |
| 2026-05-06 00:29 | 38.11390 | -78.86415 | 37923 ft | 468 kts | 236° |
| 2026-05-06 00:30 | 38.06938 | -78.92442 | 37937 ft | 468 kts | 237° |
| 2026-05-06 00:30 | 38.02479 | -78.98475 | 37938 ft | 468 kts | 236° |
| 2026-05-06 00:31 | 37.98011 | -79.04505 | 37934 ft | 469 kts | 236° |
| 2026-05-06 00:31 | 37.93533 | -79.10530 | 37948 ft | 469 kts | 237° |
| 2026-05-06 00:32 | 37.89060 | -79.16546 | 37966 ft | 469 kts | 237° |
| 2026-05-06 00:32 | 37.84575 | -79.22562 | 37985 ft | 469 kts | 236° |
| 2026-05-06 00:33 | 37.80111 | -79.28532 | 37979 ft | 467 kts | 237° |
| 2026-05-06 00:33 | 37.75647 | -79.34498 | 38015 ft | 467 kts | 237° |
| 2026-05-06 00:34 | 37.71180 | -79.40458 | 37960 ft | 467 kts | 237° |
| 2026-05-06 00:34 | 37.66714 | -79.46402 | 37979 ft | 467 kts | 237° |
| 2026-05-06 00:35 | 37.62266 | -79.52315 | 37987 ft | 468 kts | 237° |
| 2026-05-06 00:35 | 37.57847 | -79.58178 | 37972 ft | 469 kts | 237° |
| 2026-05-06 00:36 | 37.53339 | -79.64150 | 37934 ft | 470 kts | 237° |
| 2026-05-06 00:36 | 37.48823 | -79.70112 | 37949 ft | 470 kts | 237° |
| 2026-05-06 00:37 | 37.44299 | -79.76074 | 37968 ft | 471 kts | 237° |
| 2026-05-06 00:37 | 37.39768 | -79.82038 | 37988 ft | 471 kts | 237° |
| 2026-05-06 00:38 | 37.35245 | -79.87988 | 37977 ft | 470 kts | 237° |
| 2026-05-06 00:38 | 37.30724 | -79.93909 | 37968 ft | 468 kts | 237° |
| 2026-05-06 00:39 | 37.26225 | -79.99793 | 37983 ft | 466 kts | 237° |
| 2026-05-06 00:39 | 37.21732 | -80.05670 | 37983 ft | 466 kts | 237° |
| 2026-05-06 00:40 | 37.17233 | -80.11547 | 37997 ft | 467 kts | 237° |
| 2026-05-06 00:40 | 37.12713 | -80.17430 | 38025 ft | 468 kts | 236° |
| 2026-05-06 00:41 | 37.08223 | -80.23274 | 38009 ft | 469 kts | 236° |
| 2026-05-06 00:41 | 37.03653 | -80.29193 | 38018 ft | 470 kts | 236° |
| 2026-05-06 00:42 | 36.99120 | -80.35050 | 37986 ft | 473 kts | 236° |
| 2026-05-06 00:42 | 36.94523 | -80.40931 | 38000 ft | 474 kts | 236° |
| 2026-05-06 00:43 | 36.89910 | -80.46819 | 37984 ft | 474 kts | 236° |
| 2026-05-06 00:43 | 36.85287 | -80.52713 | 37925 ft | 475 kts | 236° |
| 2026-05-06 00:44 | 36.80672 | -80.58591 | 37971 ft | 473 kts | 236° |
| 2026-05-06 00:44 | 36.76063 | -80.64453 | 38027 ft | 473 kts | 236° |
| 2026-05-06 00:45 | 36.71460 | -80.70295 | 38028 ft | 472 kts | 236° |
| 2026-05-06 00:45 | 36.66861 | -80.76122 | 38039 ft | 471 kts | 236° |
| 2026-05-06 00:46 | 36.62264 | -80.81938 | 37983 ft | 471 kts | 235° |
| 2026-05-06 00:46 | 36.57671 | -80.87736 | 38008 ft | 471 kts | 235° |
| 2026-05-06 00:47 | 36.53842 | -80.92565 | 37971 ft | 471 kts | 235° |
| 2026-05-06 00:47 | 36.49235 | -80.98360 | 37989 ft | 471 kts | 235° |
| 2026-05-06 00:48 | 36.44625 | -81.04150 | 38006 ft | 471 kts | 235° |
| 2026-05-06 00:48 | 36.40022 | -81.09923 | 38016 ft | 470 kts | 235° |
| 2026-05-06 00:49 | 36.35468 | -81.15625 | 38030 ft | 470 kts | 235° |
| 2026-05-06 00:49 | 36.30856 | -81.21391 | 38049 ft | 471 kts | 235° |
| 2026-05-06 00:50 | 36.26238 | -81.27156 | 38040 ft | 472 kts | 235° |
| 2026-05-06 00:50 | 36.21611 | -81.32924 | 38029 ft | 472 kts | 235° |
| 2026-05-06 00:51 | 36.16985 | -81.38679 | 37999 ft | 470 kts | 235° |
| 2026-05-06 00:51 | 36.12374 | -81.44411 | 38003 ft | 470 kts | 235° |
| 2026-05-06 00:52 | 36.07759 | -81.50138 | 37961 ft | 470 kts | 235° |
| 2026-05-06 00:52 | 36.03145 | -81.55862 | 37976 ft | 470 kts | 235° |
| 2026-05-06 00:53 | 35.98514 | -81.61576 | 37979 ft | 470 kts | 235° |
| 2026-05-06 00:53 | 35.93885 | -81.67291 | 37914 ft | 471 kts | 235° |
| 2026-05-06 00:54 | 35.89252 | -81.73003 | 37976 ft | 471 kts | 235° |
| 2026-05-06 00:54 | 35.84604 | -81.78721 | 38040 ft | 472 kts | 235° |
| 2026-05-06 00:55 | 35.79942 | -81.84445 | 38020 ft | 473 kts | 235° |
| 2026-05-06 00:55 | 35.75242 | -81.90134 | 38013 ft | 474 kts | 234° |
| 2026-05-06 00:56 | 35.70497 | -81.95790 | 37997 ft | 475 kts | 234° |
| 2026-05-06 00:56 | 35.65755 | -82.01441 | 38000 ft | 475 kts | 234° |
| 2026-05-06 00:57 | 35.61011 | -82.07098 | 38012 ft | 475 kts | 234° |
| 2026-05-06 00:57 | 35.56269 | -82.12744 | 38005 ft | 475 kts | 234° |
| 2026-05-06 00:58 | 35.51532 | -82.18377 | 38004 ft | 473 kts | 234° |
| 2026-05-06 00:58 | 35.46804 | -82.24001 | 37994 ft | 473 kts | 234° |
| 2026-05-06 00:59 | 35.42108 | -82.29567 | 38012 ft | 473 kts | 234° |
| 2026-05-06 00:59 | 35.37479 | -82.35275 | 38002 ft | 472 kts | 236° |
| 2026-05-06 01:00 | 35.32886 | -82.41031 | 37989 ft | 472 kts | 236° |
| 2026-05-06 01:00 | 35.28276 | -82.46765 | 38020 ft | 472 kts | 236° |
| 2026-05-06 01:01 | 35.23629 | -82.52518 | 38010 ft | 472 kts | 235° |
| 2026-05-06 01:01 | 35.19018 | -82.58207 | 38037 ft | 470 kts | 236° |
| 2026-05-06 01:02 | 35.14422 | -82.63864 | 38003 ft | 473 kts | 234° |
| 2026-05-06 01:02 | 35.09683 | -82.69484 | 37996 ft | 476 kts | 234° |
| 2026-05-06 01:03 | 35.04921 | -82.75096 | 38022 ft | 476 kts | 234° |
| 2026-05-06 01:03 | 35.00170 | -82.80719 | 38013 ft | 475 kts | 234° |
| 2026-05-06 01:04 | 34.95432 | -82.86327 | 38007 ft | 474 kts | 234° |
| 2026-05-06 01:04 | 34.90683 | -82.91893 | 38010 ft | 474 kts | 233° |
| 2026-05-06 01:05 | 34.85901 | -82.97414 | 38011 ft | 473 kts | 233° |
| 2026-05-06 01:05 | 34.81130 | -83.02921 | 38016 ft | 472 kts | 233° |
| 2026-05-06 01:06 | 34.76372 | -83.08418 | 38005 ft | 471 kts | 233° |
| 2026-05-06 01:06 | 34.71613 | -83.13901 | 38029 ft | 471 kts | 233° |
| 2026-05-06 01:07 | 34.66862 | -83.19364 | 38033 ft | 470 kts | 233° |
| 2026-05-06 01:07 | 34.62139 | -83.24785 | 37475 ft | 463 kts | 234° |
| 2026-05-06 01:07 | 34.59810 | -83.27458 | 36830 ft | 459 kts | 234° |
| 2026-05-06 01:08 | 34.57493 | -83.30116 | 36185 ft | 457 kts | 234° |
| 2026-05-06 01:08 | 34.55190 | -83.32756 | 35526 ft | 455 kts | 234° |
| 2026-05-06 01:08 | 34.52890 | -83.35399 | 34743 ft | 453 kts | 234° |
| 2026-05-06 01:08 | 34.50629 | -83.37989 | 33253 ft | 451 kts | 234° |
| 2026-05-06 01:09 | 34.48335 | -83.40643 | 32276 ft | 458 kts | 233° |
| 2026-05-06 01:09 | 34.46045 | -83.43272 | 31696 ft | 443 kts | 233° |
| 2026-05-06 01:09 | 34.43852 | -83.45765 | 30720 ft | 424 kts | 232° |
| 2026-05-06 01:09 | 34.41752 | -83.48159 | 29903 ft | 405 kts | 232° |
| 2026-05-06 01:10 | 34.39746 | -83.50453 | 28960 ft | 389 kts | 232° |
| 2026-05-06 01:10 | 34.37818 | -83.52667 | 27982 ft | 377 kts | 232° |
| 2026-05-06 01:10 | 34.35966 | -83.54799 | 26957 ft | 369 kts | 231° |
| 2026-05-06 01:10 | 34.34097 | -83.56950 | 25899 ft | 362 kts | 230° |
| 2026-05-06 01:11 | 34.32307 | -83.59003 | 24854 ft | 358 kts | 229° |
| 2026-05-06 01:11 | 34.30514 | -83.61053 | 23851 ft | 353 kts | 228° |
| 2026-05-06 01:11 | 34.28748 | -83.63065 | 22735 ft | 350 kts | 227° |
| 2026-05-06 01:11 | 34.26952 | -83.65022 | 21759 ft | 344 kts | 226° |
| 2026-05-06 01:12 | 34.25177 | -83.66897 | 20966 ft | 334 kts | 226° |
| 2026-05-06 01:12 | 34.23451 | -83.68711 | 20216 ft | 324 kts | 226° |
| 2026-05-06 01:12 | 34.21769 | -83.70486 | 19432 ft | 317 kts | 226° |
| 2026-05-06 01:12 | 34.20116 | -83.72238 | 18539 ft | 315 kts | 226° |
| 2026-05-06 01:13 | 34.18476 | -83.73980 | 17561 ft | 312 kts | 226° |
| 2026-05-06 01:13 | 34.16857 | -83.75701 | 16663 ft | 307 kts | 227° |
| 2026-05-06 01:13 | 34.15267 | -83.77389 | 15834 ft | 302 kts | 227° |
| 2026-05-06 01:13 | 34.13705 | -83.79049 | 14987 ft | 297 kts | 227° |
| 2026-05-06 01:14 | 34.10614 | -83.82331 | 13477 ft | 299 kts | 227° |
| 2026-05-06 01:14 | 34.09056 | -83.83985 | 13212 ft | 295 kts | 227° |
| 2026-05-06 01:14 | 34.07540 | -83.85608 | 13050 ft | 288 kts | 227° |
| 2026-05-06 01:15 | 34.06134 | -83.87119 | 12790 ft | 285 kts | 227° |
| 2026-05-06 01:15 | 34.04688 | -83.88675 | 12444 ft | 286 kts | 227° |
| 2026-05-06 01:15 | 34.03208 | -83.90261 | 12136 ft | 282 kts | 225° |
| 2026-05-06 01:15 | 34.01589 | -83.91602 | 12016 ft | 282 kts | 217° |
| 2026-05-06 01:16 | 33.99903 | -83.92796 | 11677 ft | 281 kts | 216° |
| 2026-05-06 01:16 | 33.98214 | -83.93967 | 11388 ft | 278 kts | 215° |
| 2026-05-06 01:16 | 33.96544 | -83.95120 | 11296 ft | 274 kts | 215° |
| 2026-05-06 01:16 | 33.94893 | -83.96256 | 11030 ft | 274 kts | 215° |
| 2026-05-06 01:17 | 33.93234 | -83.97403 | 10578 ft | 275 kts | 215° |
| 2026-05-06 01:17 | 33.91577 | -83.98556 | 10167 ft | 275 kts | 215° |
| 2026-05-06 01:17 | 33.89924 | -83.99715 | 9783 ft | 275 kts | 215° |
| 2026-05-06 01:17 | 33.88270 | -84.00884 | 9348 ft | 275 kts | 215° |
| 2026-05-06 01:18 | 33.86624 | -84.02062 | 8925 ft | 275 kts | 215° |
| 2026-05-06 01:18 | 33.84984 | -84.03252 | 8504 ft | 275 kts | 215° |
| 2026-05-06 01:18 | 33.83352 | -84.04456 | 8079 ft | 275 kts | 215° |
| 2026-05-06 01:18 | 33.81726 | -84.05675 | 7675 ft | 275 kts | 215° |
| 2026-05-06 01:19 | 33.80188 | -84.06839 | 7340 ft | 253 kts | 215° |
| 2026-05-06 01:19 | 33.78750 | -84.07927 | 6898 ft | 236 kts | 215° |
| 2026-05-06 01:19 | 33.77407 | -84.08952 | 6554 ft | 221 kts | 215° |
| 2026-05-06 01:19 | 33.76126 | -84.09941 | 6177 ft | 218 kts | 215° |
| 2026-05-06 01:20 | 33.74862 | -84.10946 | 5742 ft | 217 kts | 215° |
| 2026-05-06 01:20 | 33.73622 | -84.11963 | 5322 ft | 215 kts | 215° |
| 2026-05-06 01:20 | 33.72407 | -84.12989 | 4898 ft | 210 kts | 215° |
| 2026-05-06 01:20 | 33.71211 | -84.14028 | 4492 ft | 214 kts | 215° |
| 2026-05-06 01:21 | 33.70087 | -84.15210 | 4056 ft | 216 kts | 227° |
| 2026-05-06 01:21 | 33.69168 | -84.16618 | 3806 ft | 207 kts | 231° |
| 2026-05-06 01:21 | 33.68326 | -84.17984 | 3786 ft | 201 kts | 231° |
| 2026-05-06 01:21 | 33.67493 | -84.19350 | 3792 ft | 204 kts | 231° |
| 2026-05-06 01:22 | 33.66650 | -84.20734 | 3808 ft | 206 kts | 231° |
| 2026-05-06 01:22 | 33.65801 | -84.22128 | 3624 ft | 207 kts | 232° |
| 2026-05-06 01:22 | 33.65181 | -84.23664 | 3266 ft | 210 kts | 257° |
| 2026-05-06 01:22 | 33.65062 | -84.25406 | 3084 ft | 208 kts | 260° |
| 2026-05-06 01:23 | 33.64966 | -84.27095 | 3076 ft | 197 kts | 263° |
| 2026-05-06 01:23 | 33.64952 | -84.28705 | 2985 ft | 191 kts | 265° |
| 2026-05-06 01:23 | 33.64955 | -84.30254 | 2750 ft | 178 kts | 264° |
| 2026-05-06 01:23 | 33.64954 | -84.31703 | 2513 ft | 167 kts | 264° |
| 2026-05-06 01:24 | 33.64967 | -84.33001 | 2520 ft | 149 kts | 264° |
| 2026-05-06 01:24 | 33.64973 | -84.34195 | 2349 ft | 143 kts | 262° |
| 2026-05-06 01:24 | 33.64960 | -84.35375 | 2101 ft | 139 kts | 263° |
| 2026-05-06 01:24 | 33.64965 | -84.36501 | 1864 ft | 130 kts | 262° |
| 2026-05-06 01:25 | 33.64946 | -84.37559 | 1672 ft | 130 kts | 264° |
| 2026-05-06 01:25 | 33.64927 | -84.38682 | 1560 ft | 137 kts | 266° |
| 2026-05-06 01:25 | 33.64947 | -84.39780 | 1294 ft | 127 kts | 269° |
| 2026-05-06 01:25 | 33.64939 | -84.40845 | 1139 ft | 128 kts | 270° |
| 2026-05-06 01:26 | 33.64954 | -84.41882 | 1040 ft | 114 kts | 270° |
| 2026-05-06 01:26 | 33.64952 | -84.42645 | 1040 ft | 69 kts | 270° |
| 2026-05-06 01:26 | 33.64946 | -84.43108 | 1040 ft | 35 kts | 259° |
| 2026-05-06 01:26 | 33.64859 | -84.43355 | 1040 ft | 30 kts | 252° |
| 2026-05-06 01:27 | 33.64843 | -84.43601 | 1040 ft | 30 kts | 272° |
| 2026-05-06 01:27 | 33.64832 | -84.43793 | 1040 ft | 19 kts | 242° |
| 2026-05-06 01:27 | 33.64713 | -84.43826 | 1039 ft | 19 kts | 175° |
| 2026-05-06 01:27 | 33.64582 | -84.43825 | 1039 ft | 19 kts | 187° |
| 2026-05-06 01:28 | 33.64511 | -84.43941 | 1040 ft | 19 kts | 262° |
| 2026-05-06 01:28 | 33.64434 | -84.44046 | 1040 ft | 19 kts | 191° |
| 2026-05-06 01:28 | 33.64393 | -84.44050 | 1040 ft | 0 kts | 181° |
| 2026-05-06 01:30 | 33.64302 | -84.44051 | 1040 ft | 19 kts | 180° |
| 2026-05-06 01:30 | 33.64172 | -84.44051 | 1040 ft | 19 kts | 180° |
| 2026-05-06 01:31 | 33.64043 | -84.44052 | 1040 ft | 18 kts | 179° |
| 2026-05-06 01:31 | 33.63953 | -84.44051 | 1040 ft | 1 kts | 176° |
| 2026-05-06 01:31 | 33.63949 | -84.44051 | 1040 ft | 1 kts | 175° |
| 2026-05-06 01:31 | 33.63923 | -84.44044 | 1040 ft | 5 kts | 160° |
| 2026-05-06 01:32 | 33.63903 | -84.44009 | 1040 ft | 5 kts | 107° |
| 2026-05-06 01:32 | 33.63900 | -84.43982 | 1040 ft | 0 kts | 96° |